Time;durP1;ratioP1;P1;durP2;ratioP2;P2;SDS_P1;SDS_P2;PMS_P1;PMS_P2;Temp;Humidity;BMP_temperature;BMP_pressure;BME280_temperature;BME280_humidity;BME280_pressure;Samples;Min_cycle;Max_cycle;Signal;HPM_P1;HPM_P2
2022/01/27 00:05:52;;;;;;;29.17;16.83;;;6.50;87.50;;;;;;5035327;28;20106;-46
2022/01/27 00:08:26;;;;;;;33.03;17.02;;;6.50;87.60;;;;;;5035026;28;20473;-47
2022/01/27 00:10:59;;;;;;;36.72;18.75;;;6.40;87.60;;;;;;5035906;28;20022;-48
2022/01/27 00:13:42;;;;;;;33.47;17.60;;;6.50;87.60;;;;;;5035633;28;20030;-45
2022/01/27 00:16:16;;;;;;;28.73;16.10;;;6.50;87.50;;;;;;5035786;28;20105;-46
2022/01/27 00:18:44;;;;;;;26.38;14.63;;;6.40;87.30;;;;;;5049481;28;20037;-46
2022/01/27 00:21:12;;;;;;;23.98;13.80;;;6.40;87.20;;;;;;5016012;28;20380;-45
2022/01/27 00:23:41;;;;;;;37.05;18.48;;;6.50;87.10;;;;;;5024574;28;20025;-45
2022/01/27 00:26:11;;;;;;;25.70;14.60;;;6.40;86.80;;;;;;5035359;28;20128;-46
2022/01/27 00:28:37;;;;;;;26.25;14.30;;;6.40;86.80;;;;;;5034916;28;20037;-45
2022/01/27 00:31:03;;;;;;;24.92;15.57;;;6.40;86.70;;;;;;5035260;28;20033;-45
2022/01/27 00:33:29;;;;;;;25.45;13.60;;;6.40;86.50;;;;;;5035538;28;20402;-44
2022/01/27 00:35:54;;;;;;;24.30;15.10;;;6.40;86.60;;;;;;5034951;28;20038;-45
2022/01/27 00:38:20;;;;;;;22.27;14.35;;;6.40;86.40;;;;;;5034108;28;20116;-45
2022/01/27 00:40:48;;;;;;;26.55;14.68;;;6.40;86.40;;;;;;5034886;28;20480;-45
2022/01/27 00:43:13;;;;;;;26.92;14.75;;;6.40;86.40;;;;;;5035110;28;20037;-47
2022/01/27 00:45:39;;;;;;;27.55;16.45;;;6.40;86.50;;;;;;5034670;28;20521;-45
2022/01/27 00:48:05;;;;;;;28.75;15.25;;;6.40;86.40;;;;;;5035470;28;20399;-46
2022/01/27 00:50:34;;;;;;;27.58;16.35;;;6.40;86.40;;;;;;5035027;28;20029;-46
2022/01/27 00:53:05;;;;;;;27.70;15.70;;;6.40;86.40;;;;;;5034991;28;20021;-44
2022/01/27 00:55:39;;;;;;;26.83;16.63;;;6.40;86.20;;;;;;5034805;28;20029;-47
2022/01/27 01:00:37;;;;;;;28.05;17.30;;;6.40;86.20;;;;;;5034020;28;20229;-47
2022/01/27 01:03:11;;;;;;;42.42;17.73;;;6.30;86.40;;;;;;5034436;28;20037;-49
2022/01/27 01:15:52;;;;;;;26.20;14.77;;;6.30;86.40;;;;;;5034021;28;20137;-46
2022/01/27 01:21:20;;;;;;;25.27;13.85;;;6.30;86.40;;;;;;5034267;28;20095;-49
2022/01/27 01:29:29;;;;;;;24.08;15.32;;;6.40;86.00;;;;;;5033360;28;20110;-45
2022/01/27 01:32:14;;;;;;;27.40;17.38;;;6.40;86.00;;;;;;5033375;28;20033;-45
2022/01/27 01:34:48;;;;;;;32.88;17.20;;;6.40;86.00;;;;;;5034038;28;20505;-46
2022/01/27 01:37:17;;;;;;;34.55;17.38;;;6.30;86.10;;;;;;5033239;28;20033;-46
2022/01/27 01:39:43;;;;;;;;;;;6.30;86.20;;;;;;5034487;28;20324;-46
2022/01/27 01:42:12;;;;;;;26.95;17.10;;;6.30;86.30;;;;;;5033737;28;19920;-46
2022/01/27 01:44:39;;;;;;;29.75;17.65;;;6.30;86.20;;;;;;5021885;28;20141;-46
2022/01/27 01:47:06;;;;;;;30.70;19.42;;;6.30;86.20;;;;;;5033756;28;20033;-46
2022/01/27 01:49:31;;;;;;;34.33;18.70;;;6.30;86.30;;;;;;5033760;28;20025;-47
2022/01/27 01:52:02;;;;;;;29.42;18.92;;;6.30;86.30;;;;;;5036941;28;20516;-46
2022/01/27 01:54:27;;;;;;;31.83;17.70;;;6.30;86.20;;;;;;5033406;28;20057;-45
2022/01/27 01:56:53;;;;;;;30.25;18.83;;;6.30;86.30;;;;;;5033518;28;20584;-48
2022/01/27 01:59:19;;;;;;;33.65;17.98;;;6.20;86.30;;;;;;5033549;28;20030;-46
2022/01/27 02:01:45;;;;;;;31.23;17.67;;;6.20;86.30;;;;;;5032446;28;20030;-46
2022/01/27 02:04:12;;;;;;;33.10;18.70;;;6.20;86.20;;;;;;5027627;28;20087;-46
2022/01/27 02:06:54;;;;;;;28.13;17.05;;;6.20;86.20;;;;;;5033113;28;20037;-45
2022/01/27 02:20:02;;;;;;;27.85;17.90;;;6.20;86.50;;;;;;5032903;28;20044;-46
2022/01/27 02:22:28;;;;;;;31.95;18.38;;;6.20;86.40;;;;;;5033141;28;20475;-47
2022/01/27 02:24:53;;;;;;;33.85;18.70;;;6.20;86.40;;;;;;5033326;28;20041;-45
2022/01/27 02:27:22;;;;;;;29.40;16.63;;;6.30;86.30;;;;;;5033317;28;20026;-46
2022/01/27 02:29:48;;;;;;;33.70;17.77;;;6.30;86.20;;;;;;5033198;28;20061;-48
2022/01/27 02:32:15;;;;;;;33.03;18.08;;;6.30;86.20;;;;;;5033266;28;20451;-46
2022/01/27 02:34:41;;;;;;;27.65;17.20;;;6.30;86.00;;;;;;5033125;28;20124;-49
2022/01/27 02:37:09;;;;;;;29.08;17.63;;;6.30;86.00;;;;;;5033560;28;20041;-46
2022/01/27 02:39:35;;;;;;;33.78;18.55;;;6.30;85.90;;;;;;5032978;28;20447;-47
2022/01/27 02:42:05;;;;;;;28.63;16.65;;;6.30;86.00;;;;;;5033272;28;20359;-45
2022/01/27 02:44:38;;;;;;;31.17;17.08;;;6.30;86.00;;;;;;5031909;28;20072;-46
2022/01/27 02:47:03;;;;;;;28.00;16.90;;;6.30;86.10;;;;;;5033243;28;20505;-45
2022/01/27 02:49:29;;;;;;;30.92;17.67;;;6.20;86.40;;;;;;5033275;28;20045;-48
2022/01/27 02:51:55;;;;;;;32.35;18.92;;;6.20;86.50;;;;;;5037215;28;20030;-46
2022/01/27 02:54:21;;;;;;;29.75;17.58;;;6.20;86.40;;;;;;5036757;28;20045;-46
2022/01/27 02:56:47;;;;;;;35.08;20.10;;;6.20;86.50;;;;;;5036998;28;20120;-46
2022/01/27 02:59:18;;;;;;;31.35;17.88;;;6.10;86.60;;;;;;5036844;28;20733;-46
2022/01/27 03:01:46;;;;;;;34.97;18.58;;;6.10;86.80;;;;;;5035695;28;20036;-46
2022/01/27 03:04:12;;;;;;;32.42;19.33;;;6.10;86.80;;;;;;5036323;28;20083;-45
2022/01/27 03:06:37;;;;;;;32.78;20.60;;;6.00;87.00;;;;;;5034889;28;20030;-45
2022/01/27 03:09:03;;;;;;;40.95;23.67;;;6.00;87.30;;;;;;5036128;28;20033;-44
2022/01/27 03:11:47;;;;;;;35.67;22.08;;;6.00;87.70;;;;;;5035674;28;20026;-47
2022/01/27 03:14:15;;;;;;;39.10;22.42;;;5.90;88.20;;;;;;5035936;28;20021;-45
2022/01/27 03:16:42;;;;;;;44.28;21.95;;;5.90;88.70;;;;;;5035037;28;20068;-45
2022/01/27 03:19:08;;;;;;;41.00;22.98;;;5.90;88.80;;;;;;5036053;28;20642;-44
2022/01/27 03:21:36;;;;;;;39.95;23.52;;;5.80;88.90;;;;;;5036043;28;20243;-47
2022/01/27 03:24:02;;;;;;;40.30;23.20;;;5.80;89.00;;;;;;5034496;28;20026;-44
2022/01/27 03:26:28;;;;;;;45.13;23.50;;;5.70;89.10;;;;;;5035590;28;20080;-44
2022/01/27 03:28:54;;;;;;;42.90;24.88;;;5.70;89.20;;;;;;5035502;28;20136;-44
2022/01/27 03:31:20;;;;;;;38.85;23.80;;;5.80;89.20;;;;;;5035641;28;20084;-45
2022/01/27 03:33:46;;;;;;;40.83;23.25;;;5.70;89.10;;;;;;5034371;28;20459;-46
2022/01/27 03:36:15;;;;;;;44.28;23.75;;;5.70;89.20;;;;;;5035504;28;20447;-45
2022/01/27 03:38:41;;;;;;;44.10;24.17;;;5.70;89.20;;;;;;5035534;28;20033;-45
2022/01/27 03:41:08;;;;;;;38.70;23.42;;;5.80;89.20;;;;;;5034564;28;20029;-44
2022/01/27 03:43:37;;;;;;;32.78;22.13;;;5.80;89.20;;;;;;5034359;28;20035;-45
2022/01/27 03:46:04;;;;;;;39.72;23.15;;;5.70;89.20;;;;;;5033973;28;20049;-45
2022/01/27 03:48:30;;;;;;;37.05;23.35;;;5.70;89.00;;;;;;5032743;28;20041;-47
2022/01/27 03:50:56;;;;;;;39.50;22.15;;;5.70;89.10;;;;;;5049221;28;20182;-44
2022/01/27 03:53:22;;;;;;;42.85;23.27;;;5.70;88.90;;;;;;5033833;28;20029;-45
2022/01/27 03:55:47;;;;;;;39.05;23.35;;;5.80;88.90;;;;;;5034267;28;20061;-46
2022/01/27 03:58:13;;;;;;;40.10;22.40;;;5.80;88.70;;;;;;5033767;28;20466;-45
2022/01/27 04:00:39;;;;;;;39.45;21.83;;;5.80;88.60;;;;;;5033506;28;20153;-44
2022/01/27 04:03:10;;;;;;;34.47;22.77;;;5.80;88.60;;;;;;5037703;28;20050;-45
2022/01/27 04:05:49;;;;;;;34.63;21.15;;;5.80;88.30;;;;;;5033800;28;20025;-44
2022/01/27 04:08:15;;;;;;;43.05;24.23;;;5.90;88.30;;;;;;5033702;28;20033;-44
2022/01/27 04:10:42;;;;;;;32.45;22.58;;;5.90;88.30;;;;;;5033599;28;20026;-45
2022/01/27 04:13:08;;;;;;;33.55;21.58;;;5.90;88.10;;;;;;5033827;28;20037;-45
2022/01/27 04:15:36;;;;;;;37.72;21.77;;;5.90;88.00;;;;;;5033466;28;20037;-45
2022/01/27 04:18:03;;;;;;;34.85;23.45;;;5.90;88.00;;;;;;5032791;28;20050;-46
2022/01/27 04:20:29;;;;;;;40.20;24.88;;;5.90;88.00;;;;;;5033405;28;20439;-44
2022/01/27 04:22:54;;;;;;;40.45;23.30;;;5.90;88.00;;;;;;5032573;28;20102;-45
2022/01/27 04:25:20;;;;;;;44.15;24.88;;;5.90;88.10;;;;;;5032786;28;20339;-47
2022/01/27 04:27:50;;;;;;;42.53;26.05;;;5.90;88.70;;;;;;5033474;28;20033;-50
2022/01/27 04:30:18;;;;;;;40.13;24.42;;;5.90;89.00;;;;;;5034093;28;20104;-54
2022/01/27 04:32:54;;;;;;;45.20;26.55;;;5.80;89.40;;;;;;5033490;28;20375;-58
2022/01/27 04:35:23;;;;;;;44.47;27.02;;;5.70;89.80;;;;;;5033959;28;20033;-59
2022/01/27 04:48:23;;;;;;;52.50;25.98;;;5.60;90.80;;;;;;5035094;28;20061;-62
2022/01/27 04:50:50;;;;;;;49.67;27.65;;;5.70;90.90;;;;;;5034583;28;20392;-62
2022/01/27 04:53:23;;;;;;;44.03;27.63;;;5.60;91.00;;;;;;5034205;28;20513;-61
2022/01/27 04:55:51;;;;;;;44.67;26.98;;;5.60;91.20;;;;;;5034002;28;20029;-60
2022/01/27 04:58:25;;;;;;;44.30;26.55;;;5.50;91.30;;;;;;5033866;28;20033;-62
2022/01/27 05:00:52;;;;;;;47.28;28.67;;;5.50;91.40;;;;;;5034382;28;20112;-61
2022/01/27 05:03:31;;;;;;;45.53;28.98;;;5.50;91.60;;;;;;5034473;28;20034;-60
2022/01/27 05:05:57;;;;;;;46.30;26.90;;;5.50;91.60;;;;;;5013984;28;20133;-59
2022/01/27 05:08:25;;;;;;;51.28;29.80;;;5.50;91.70;;;;;;5024713;28;20495;-59
2022/01/27 05:11:07;;;;;;;50.28;29.33;;;5.50;91.70;;;;;;5033129;28;20025;-61
2022/01/27 05:13:40;;;;;;;58.22;31.60;;;5.50;91.80;;;;;;5033644;28;20041;-59
2022/01/27 05:16:06;;;;;;;50.80;28.83;;;5.50;91.80;;;;;;5034251;28;20500;-61
2022/01/27 05:18:32;;;;;;;50.42;28.40;;;5.50;91.90;;;;;;5044916;28;20029;-59
2022/01/27 05:20:58;;;;;;;46.42;28.60;;;5.50;92.00;;;;;;5034227;28;20090;-60
2022/01/27 05:23:24;;;;;;;50.42;26.60;;;5.50;91.90;;;;;;5033544;28;20033;-59
2022/01/27 05:25:49;;;;;;;46.80;27.70;;;5.50;91.90;;;;;;5034167;28;20398;-60
2022/01/27 05:28:15;;;;;;;48.42;28.20;;;5.50;92.00;;;;;;5033539;28;20034;-61
2022/01/27 05:30:40;;;;;;;49.75;26.02;;;5.50;92.00;;;;;;5033798;28;20041;-60
2022/01/27 05:33:09;;;;;;;50.80;27.55;;;5.50;92.10;;;;;;5033657;28;20437;-62
2022/01/27 05:35:35;;;;;;;45.85;26.67;;;5.50;92.10;;;;;;5033642;28;20451;-61
2022/01/27 05:38:01;;;;;;;44.42;25.95;;;5.60;92.10;;;;;;5033622;28;20055;-60
2022/01/27 05:40:27;;;;;;;43.72;24.30;;;5.60;92.20;;;;;;5033565;28;20112;-57
2022/01/27 05:42:53;;;;;;;42.10;25.52;;;5.60;92.20;;;;;;5033945;28;20183;-58
2022/01/27 05:45:19;;;;;;;42.72;24.73;;;5.70;92.20;;;;;;5033099;28;20046;-61
2022/01/27 05:47:45;;;;;;;42.17;26.70;;;5.70;92.20;;;;;;5033154;28;20052;-62
2022/01/27 05:50:11;;;;;;;45.22;25.40;;;5.70;92.30;;;;;;5031955;28;20037;-63
2022/01/27 05:52:37;;;;;;;47.17;25.45;;;5.70;92.20;;;;;;5032873;28;20103;-63
2022/01/27 05:55:03;;;;;;;44.35;25.55;;;5.70;92.20;;;;;;5033005;28;20066;-61
2022/01/27 05:57:29;;;;;;;45.72;24.33;;;5.70;92.30;;;;;;5033134;28;20033;-56
2022/01/27 05:59:54;;;;;;;40.58;21.77;;;5.70;92.40;;;;;;5032413;28;20044;-59
2022/01/27 06:02:22;;;;;;;36.15;22.75;;;5.70;92.50;;;;;;5033061;28;20474;-63
2022/01/27 06:04:48;;;;;;;38.38;22.85;;;5.70;92.50;;;;;;5032096;28;20048;-63
2022/01/27 06:07:15;;;;;;;39.17;22.42;;;5.80;92.50;;;;;;5048160;28;20034;-62
2022/01/27 06:09:40;;;;;;;41.47;22.65;;;5.80;92.50;;;;;;5033203;28;20687;-62
2022/01/27 06:12:06;;;;;;;40.97;22.38;;;5.80;92.50;;;;;;5031761;28;20040;-62
2022/01/27 06:14:32;;;;;;;35.35;21.08;;;5.80;92.60;;;;;;5032293;28;20025;-62
2022/01/27 06:16:57;;;;;;;34.85;21.52;;;5.80;92.60;;;;;;5032619;28;20402;-61
2022/01/27 06:19:28;;;;;;;41.03;21.55;;;5.90;92.60;;;;;;5032537;28;20051;-61
2022/01/27 06:21:54;;;;;;;35.72;21.30;;;5.90;92.70;;;;;;5032885;28;20092;-62
2022/01/27 06:24:22;;;;;;;34.17;19.88;;;5.90;92.70;;;;;;5032382;28;20459;-62
2022/01/27 06:26:49;;;;;;;30.08;18.25;;;5.90;92.70;;;;;;5033297;28;20029;-62
2022/01/27 06:29:15;;;;;;;38.05;21.23;;;5.90;92.80;;;;;;5032494;28;20087;-58
2022/01/27 06:31:41;;;;;;;31.58;19.35;;;5.90;92.80;;;;;;5032871;28;20301;-60
2022/01/27 06:34:07;;;;;;;30.85;17.73;;;5.90;92.80;;;;;;5032417;28;20057;-58
2022/01/27 06:36:33;;;;;;;39.67;20.15;;;5.90;92.80;;;;;;5033064;28;20021;-62
2022/01/27 06:38:58;;;;;;;35.00;17.35;;;5.90;92.80;;;;;;5032535;28;20083;-62
2022/01/27 06:41:24;;;;;;;27.48;16.80;;;5.90;92.90;;;;;;5032727;28;20466;-61
2022/01/27 06:43:49;;;;;;;29.92;17.58;;;6.00;92.90;;;;;;5031475;28;20194;-62
2022/01/27 06:46:17;;;;;;;26.95;15.10;;;6.00;93.00;;;;;;5032927;28;20065;-62
2022/01/27 06:48:43;;;;;;;28.85;16.17;;;6.00;92.90;;;;;;5032483;28;20355;-60
2022/01/27 06:51:09;;;;;;;25.63;16.02;;;6.00;92.90;;;;;;5032892;28;20022;-61
2022/01/27 06:53:34;;;;;;;27.08;16.00;;;6.00;93.00;;;;;;5032317;28;20367;-62
2022/01/27 06:56:01;;;;;;;24.42;15.13;;;6.00;93.00;;;;;;5033096;28;20061;-59
2022/01/27 06:58:26;;;;;;;25.00;13.88;;;6.00;93.10;;;;;;5032239;28;20037;-58
2022/01/27 07:00:52;;;;;;;24.35;14.70;;;6.10;93.10;;;;;;5032537;28;20043;-61
2022/01/27 07:03:20;;;;;;;27.83;14.38;;;6.10;93.10;;;;;;5032725;28;20033;-58
2022/01/27 07:05:45;;;;;;;23.13;13.27;;;6.10;93.10;;;;;;5030841;28;20034;-61
2022/01/27 07:08:11;;;;;;;21.73;14.38;;;6.10;93.10;;;;;;5031693;28;20033;-61
2022/01/27 07:10:36;;;;;;;21.58;13.82;;;6.20;93.10;;;;;;5032267;28;20654;-63
2022/01/27 07:13:02;;;;;;;21.08;13.63;;;6.20;93.10;;;;;;5032497;28;20045;-63
2022/01/27 07:15:29;;;;;;;21.25;13.07;;;6.20;93.10;;;;;;5032322;28;20045;-60
2022/01/27 07:17:54;;;;;;;19.95;13.07;;;6.20;93.20;;;;;;5032326;28;20048;-61
2022/01/27 07:20:20;;;;;;;22.58;13.82;;;6.30;93.10;;;;;;5031366;28;20025;-62
2022/01/27 07:22:45;;;;;;;23.90;12.13;;;6.20;93.10;;;;;;5032103;28;20124;-62
2022/01/27 07:25:11;;;;;;;19.25;11.77;;;6.30;93.10;;;;;;5032535;28;20095;-61
2022/01/27 07:27:37;;;;;;;23.08;11.77;;;6.30;93.20;;;;;;5031147;28;20064;-59
2022/01/27 07:30:04;;;;;;;22.08;12.48;;;6.30;93.20;;;;;;5031717;28;20025;-59
2022/01/27 07:32:30;;;;;;;35.38;19.80;;;6.30;93.20;;;;;;5032021;28;20088;-55
2022/01/27 07:34:58;;;;;;;21.65;12.32;;;6.40;93.20;;;;;;5031885;28;20041;-56
2022/01/27 07:37:24;;;;;;;18.17;11.43;;;6.40;93.30;;;;;;5034814;28;20025;-57
2022/01/27 07:39:49;;;;;;;19.67;13.02;;;6.40;93.30;;;;;;5034784;28;20125;-54
2022/01/27 07:42:15;;;;;;;18.05;11.18;;;6.50;93.30;;;;;;5035411;28;20057;-54
2022/01/27 07:44:40;;;;;;;17.83;11.50;;;6.50;93.30;;;;;;5033961;28;20052;-53
2022/01/27 07:47:06;;;;;;;16.13;11.45;;;6.50;93.30;;;;;;5035631;28;20045;-52
2022/01/27 07:49:33;;;;;;;16.48;10.13;;;6.50;93.30;;;;;;5034671;28;20112;-50
2022/01/27 07:51:58;;;;;;;17.80;9.85;;;6.50;93.30;;;;;;5035746;28;20500;-60
2022/01/27 07:54:24;;;;;;;15.27;10.63;;;6.50;93.30;;;;;;5035042;28;20045;-60
2022/01/27 07:56:50;;;;;;;14.25;9.95;;;6.50;93.30;;;;;;5035267;28;20451;-56
2022/01/27 07:59:15;;;;;;;15.48;10.40;;;6.50;93.40;;;;;;5035281;28;20379;-57
2022/01/27 08:01:41;;;;;;;17.80;10.27;;;6.60;93.40;;;;;;5035136;28;20033;-52
2022/01/27 08:04:07;;;;;;;17.58;10.23;;;6.60;93.40;;;;;;5035618;28;20029;-57
2022/01/27 08:06:32;;;;;;;18.42;9.75;;;6.60;93.40;;;;;;5034263;28;20030;-58
2022/01/27 08:08:58;;;;;;;14.00;9.45;;;6.60;93.50;;;;;;5034472;28;20506;-56
2022/01/27 08:11:23;;;;;;;15.23;10.90;;;6.70;93.50;;;;;;5035350;28;20461;-50
2022/01/27 08:13:49;;;;;;;21.95;11.73;;;6.70;93.50;;;;;;5035283;28;20036;-49
2022/01/27 08:16:14;;;;;;;22.63;10.75;;;6.70;93.60;;;;;;5035484;28;20033;-49
2022/01/27 08:18:40;;;;;;;23.98;14.10;;;6.80;93.60;;;;;;5048181;28;20359;-51
2022/01/27 08:21:06;;;;;;;25.70;14.75;;;6.80;93.50;;;;;;5035122;28;20060;-49
2022/01/27 08:23:31;;;;;;;30.33;14.68;;;6.80;93.50;;;;;;5034740;28;20099;-48
2022/01/27 08:26:05;;;;;;;31.13;15.13;;;6.90;93.50;;;;;;5035341;28;20034;-48
2022/01/27 08:28:38;;;;;;;33.05;14.43;;;6.90;93.50;;;;;;5034743;28;20029;-47
2022/01/27 08:31:04;;;;;;;35.65;15.50;;;6.90;93.50;;;;;;5035055;28;20516;-47
2022/01/27 08:33:36;;;;;;;33.50;15.82;;;7.00;93.40;;;;;;5035146;28;20033;-49
2022/01/27 08:36:05;;;;;;;41.20;15.93;;;7.00;93.40;;;;;;5015746;28;20411;-47
2022/01/27 08:38:31;;;;;;;30.45;12.52;;;7.10;93.40;;;;;;5015056;28;20474;-48
2022/01/27 08:40:59;;;;;;;33.40;14.05;;;7.20;93.30;;;;;;5033993;28;20033;-48
2022/01/27 08:43:27;;;;;;;38.10;13.95;;;7.20;93.30;;;;;;5034293;28;20033;-46
2022/01/27 08:45:53;;;;;;;40.88;13.48;;;7.30;93.20;;;;;;5034640;28;20041;-45
2022/01/27 08:48:21;;;;;;;36.10;14.82;;;7.30;93.10;;;;;;5033358;28;20112;-46
2022/01/27 08:50:59;;;;;;;25.92;11.80;;;7.40;93.00;;;;;;5034613;28;20113;-46
2022/01/27 08:53:28;;;;;;;29.98;11.48;;;7.40;92.90;;;;;;5034704;28;20037;-45
2022/01/27 08:55:54;;;;;;;36.67;10.93;;;7.40;92.90;;;;;;5034303;28;20079;-47
2022/01/27 08:58:21;;;;;;;35.60;11.73;;;7.40;92.70;;;;;;5033837;28;20429;-45
2022/01/27 09:00:47;;;;;;;44.92;11.43;;;7.40;92.60;;;;;;5034624;28;20457;-46
2022/01/27 09:03:14;;;;;;;35.45;12.00;;;7.50;92.60;;;;;;5033949;28;20064;-46
2022/01/27 09:05:43;;;;;;;38.60;10.10;;;7.50;92.60;;;;;;5033933;28;20036;-47
2022/01/27 09:08:08;;;;;;;32.67;11.13;;;7.60;92.60;;;;;;5035033;28;20029;-44
2022/01/27 09:10:37;;;;;;;41.45;10.18;;;7.60;92.50;;;;;;5033771;28;20033;-45
2022/01/27 09:13:04;;;;;;;32.70;9.07;;;7.60;92.40;;;;;;5034680;28;20055;-45
2022/01/27 09:15:30;;;;;;;28.50;9.18;;;7.60;92.30;;;;;;5034131;28;20451;-45
2022/01/27 09:17:59;;;;;;;31.50;9.05;;;7.70;92.30;;;;;;5034525;28;20563;-44
2022/01/27 09:20:25;;;;;;;31.45;9.25;;;7.70;92.30;;;;;;5034636;28;20025;-44
2022/01/27 09:22:53;;;;;;;34.75;11.02;;;7.70;92.20;;;;;;5034079;28;20451;-44
2022/01/27 09:25:26;;;;;;;27.25;8.30;;;7.70;92.20;;;;;;5034266;28;20087;-44
2022/01/27 09:27:56;;;;;;;34.53;9.45;;;7.70;92.20;;;;;;5034615;28;20029;-43
2022/01/27 09:30:22;;;;;;;26.92;9.02;;;7.70;92.20;;;;;;5032787;28;20583;-46
2022/01/27 09:32:48;;;;;;;34.85;9.18;;;7.70;92.10;;;;;;5034106;28;20045;-44
2022/01/27 09:35:15;;;;;;;33.90;9.30;;;7.70;92.20;;;;;;5033140;28;20037;-44
2022/01/27 09:37:43;;;;;;;38.00;9.50;;;7.70;92.20;;;;;;5034416;28;20030;-44
2022/01/27 09:40:10;;;;;;;24.58;7.13;;;7.70;92.10;;;;;;5033913;28;20040;-44
2022/01/27 09:42:37;;;;;;;25.80;6.95;;;7.70;92.10;;;;;;5034186;28;20029;-43
2022/01/27 09:45:05;;;;;;;29.45;8.05;;;7.80;92.00;;;;;;5033741;28;20486;-44
2022/01/27 09:47:34;;;;;;;31.00;8.55;;;7.80;91.80;;;;;;5034086;28;20355;-44
2022/01/27 09:50:22;;;;;;;30.83;8.80;;;7.80;91.90;;;;;;5017124;28;20087;-46
2022/01/27 09:52:49;;;;;;;28.30;8.57;;;7.90;91.80;;;;;;5033703;28;20071;-48
2022/01/27 09:55:14;;;;;;;33.20;7.95;;;7.90;91.70;;;;;;5033970;28;20364;-44
2022/01/27 09:57:40;;;;;;;36.55;8.55;;;7.90;91.70;;;;;;5033710;28;20120;-44
2022/01/27 10:00:09;;;;;;;37.38;9.93;;;7.90;91.70;;;;;;5032501;28;20120;-44
2022/01/27 10:02:34;;;;;;;29.93;8.10;;;7.90;91.60;;;;;;5033355;28;20040;-44
2022/01/27 10:05:01;;;;;;;25.33;8.00;;;8.00;91.60;;;;;;5033711;28;20364;-43
2022/01/27 10:07:48;;;;;;;31.77;8.40;;;8.00;91.40;;;;;;5033479;28;20036;-44
2022/01/27 10:10:17;;;;;;;27.23;6.95;;;8.10;91.30;;;;;;5033903;28;20350;-44
2022/01/27 10:12:49;;;;;;;35.35;7.47;;;8.20;91.20;;;;;;5033005;28;20033;-44
2022/01/27 10:15:19;;;;;;;31.30;8.48;;;8.20;91.10;;;;;;5038631;28;20033;-44
2022/01/27 10:18:05;;;;;;;35.70;7.28;;;8.30;91.00;;;;;;5033427;28;20067;-44
2022/01/27 10:20:32;;;;;;;36.55;8.85;;;8.30;90.80;;;;;;5033028;28;20121;-43
2022/01/27 10:23:15;;;;;;;32.88;7.55;;;8.40;90.60;;;;;;5033241;28;20100;-43
2022/01/27 10:25:47;;;;;;;36.95;8.15;;;8.40;90.70;;;;;;5033343;28;20026;-44
2022/01/27 10:28:30;;;;;;;32.83;7.35;;;8.40;90.60;;;;;;5033535;28;20040;-44
2022/01/27 10:31:06;;;;;;;23.95;7.22;;;8.40;90.60;;;;;;5032907;28;20045;-43
2022/01/27 10:33:46;;;;;;;33.65;8.80;;;8.40;90.60;;;;;;5033193;28;20033;-44
2022/01/27 10:36:24;;;;;;;30.02;7.15;;;8.50;90.40;;;;;;5013402;28;20026;-44
2022/01/27 10:38:56;;;;;;;39.83;7.97;;;8.50;90.30;;;;;;5026507;28;20025;-44
2022/01/27 10:41:22;;;;;;;28.33;6.50;;;8.50;90.20;;;;;;5032643;28;20025;-45
2022/01/27 10:43:48;;;;;;;31.60;7.57;;;8.40;90.10;;;;;;5032230;28;20129;-44
2022/01/27 10:46:24;;;;;;;27.27;7.20;;;8.50;90.20;;;;;;5031989;28;20116;-43
2022/01/27 10:49:04;;;;;;;20.73;6.07;;;8.50;90.00;;;;;;5031918;28;20467;-44
2022/01/27 10:51:45;;;;;;;31.48;6.97;;;8.50;90.10;;;;;;5031483;28;20029;-45
2022/01/27 10:54:23;;;;;;;35.00;8.43;;;8.50;90.10;;;;;;5032229;28;20367;-46
2022/01/27 10:56:49;;;;;;;36.35;8.75;;;8.50;89.90;;;;;;5032213;28;20324;-45
2022/01/27 10:59:17;;;;;;;34.50;7.18;;;8.60;90.10;;;;;;5031169;28;20044;-43
2022/01/27 11:01:48;;;;;;;33.70;7.10;;;8.70;89.80;;;;;;5031900;28;20037;-44
2022/01/27 11:04:16;;;;;;;29.67;6.95;;;8.80;89.60;;;;;;5032143;28;20142;-44
2022/01/27 11:06:57;;;;;;;29.27;7.28;;;8.80;89.50;;;;;;5032261;28;20443;-44
2022/01/27 11:09:24;;;;;;;28.48;6.70;;;8.80;89.30;;;;;;5015394;28;20112;-45
2022/01/27 11:11:52;;;;;;;32.90;6.78;;;8.70;89.00;;;;;;5034828;28;20022;-46
2022/01/27 11:14:20;;;;;;;31.75;6.18;;;8.60;89.20;;;;;;5035951;28;20041;-44
2022/01/27 11:16:49;;;;;;;30.75;6.45;;;8.60;89.10;;;;;;4999536;28;20042;-44
2022/01/27 11:19:26;;;;;;;27.40;5.85;;;8.60;89.20;;;;;;5035040;28;20037;-48
2022/01/27 11:22:40;;;;;;;29.58;6.68;;;8.60;89.20;;;;;;5035971;28;20049;-44
2022/01/27 11:27:28;;;;;;;24.48;6.88;;;8.70;89.00;;;;;;5035995;28;20040;-45
2022/01/27 11:30:00;;;;;;;;;;;8.80;88.80;;;;;;5035872;28;20383;-46
2022/01/27 11:32:33;;;;;;;41.55;6.90;;;8.80;88.50;;;;;;5035390;28;19909;-46
2022/01/27 11:34:59;;;;;;;31.63;7.93;;;8.70;88.50;;;;;;5035675;28;20032;-45
2022/01/27 11:37:37;;;;;;;36.20;9.23;;;8.70;88.60;;;;;;5035927;28;20037;-46
2022/01/27 11:40:08;;;;;;;33.83;7.72;;;8.70;88.90;;;;;;5047946;28;20125;-44
2022/01/27 11:42:39;;;;;;;38.17;7.03;;;8.70;89.10;;;;;;5035215;28;20036;-45
2022/01/27 11:45:23;;;;;;;31.58;6.30;;;8.60;88.90;;;;;;5035409;28;20053;-47
2022/01/27 11:48:00;;;;;;;29.65;6.32;;;8.60;88.90;;;;;;5035620;28;20115;-46
2022/01/27 11:51:06;;;;;;;33.10;6.30;;;8.50;88.90;;;;;;5034875;28;20094;-47
2022/01/27 11:53:36;;;;;;;33.92;7.75;;;8.40;88.80;;;;;;5034432;28;20025;-45
2022/01/27 11:56:28;;;;;;;40.47;8.60;;;8.40;88.90;;;;;;5051237;28;20032;-47
2022/01/27 11:58:58;;;;;;;36.97;11.80;;;8.40;88.50;;;;;;5043167;28;20025;-46
2022/01/27 12:01:27;;;;;;;24.30;5.20;;;8.40;88.30;;;;;;5034812;28;20339;-47
2022/01/27 12:04:05;;;;;;;39.80;7.40;;;8.40;88.50;;;;;;5035263;28;20033;-47
2022/01/27 12:06:47;;;;;;;23.58;5.68;;;8.40;88.40;;;;;;5046060;28;20021;-47
2022/01/27 12:09:18;;;;;;;35.33;6.03;;;8.50;88.30;;;;;;5035004;28;20021;-45
2022/01/27 12:11:49;;;;;;;26.27;5.50;;;8.50;88.30;;;;;;5035234;28;20468;-49
2022/01/27 12:14:18;;;;;;;33.00;7.35;;;8.50;88.20;;;;;;5034857;28;20086;-45
2022/01/27 12:17:04;;;;;;;27.70;6.13;;;8.60;88.00;;;;;;5034998;28;20087;-45
2022/01/27 12:19:48;;;;;;;27.25;6.85;;;8.60;87.90;;;;;;5015334;28;20034;-47
2022/01/27 12:22:15;;;;;;;30.30;5.60;;;8.70;87.60;;;;;;5017553;28;20034;-46
2022/01/27 12:24:55;;;;;;;26.92;5.93;;;8.70;87.30;;;;;;5034893;28;20107;-46
2022/01/27 12:27:22;;;;;;;26.30;6.57;;;8.80;87.10;;;;;;5034801;28;20017;-47
2022/01/27 12:29:56;;;;;;;30.73;5.55;;;8.80;86.80;;;;;;5034681;28;20449;-46
2022/01/27 12:32:30;;;;;;;25.08;5.15;;;8.90;86.80;;;;;;5034201;28;20162;-47
2022/01/27 12:34:59;;;;;;;30.98;7.15;;;9.00;86.70;;;;;;5034449;28;20090;-45
2022/01/27 12:38:00;;;;;;;29.52;7.10;;;9.00;86.60;;;;;;5034056;28;20048;-46
2022/01/27 12:40:30;;;;;;;25.25;5.53;;;8.90;86.70;;;;;;5010868;28;20351;-47
2022/01/27 12:43:11;;;;;;;;;;;9.00;86.50;;;;;;5023827;28;20017;-47
2022/01/27 12:45:38;;;;;;;31.33;7.20;;;9.00;86.50;;;;;;5034302;28;19916;-48
2022/01/27 12:48:08;;;;;;;31.55;6.65;;;9.00;86.10;;;;;;5034551;28;20039;-45
2022/01/27 12:50:35;;;;;;;35.42;7.47;;;9.00;86.50;;;;;;5034026;28;20026;-48
2022/01/27 12:53:08;;;;;;;30.27;6.10;;;8.90;86.40;;;;;;5033309;28;20025;-46
2022/01/27 12:55:36;;;;;;;25.90;5.47;;;8.80;86.40;;;;;;5033533;28;20192;-46
2022/01/27 12:58:07;;;;;;;23.83;5.55;;;8.80;86.20;;;;;;5034421;28;20029;-48
2022/01/27 13:01:01;;;;;;;29.88;6.78;;;8.70;86.20;;;;;;5033535;28;20052;-47
2022/01/27 13:03:27;;;;;;;24.48;4.93;;;8.70;86.30;;;;;;5034134;28;20037;-47
2022/01/27 13:05:54;;;;;;;31.60;6.13;;;8.60;86.50;;;;;;5033694;28;20336;-46
2022/01/27 13:08:32;;;;;;;28.73;6.00;;;8.50;86.40;;;;;;5034052;28;20160;-46
2022/01/27 13:11:07;;;;;;;26.42;5.47;;;8.40;86.60;;;;;;5014342;28;20041;-49
2022/01/27 13:13:36;;;;;;;32.08;5.57;;;8.40;86.90;;;;;;5025744;28;20407;-45
2022/01/27 13:16:09;;;;;;;36.43;6.13;;;8.40;86.80;;;;;;5033963;28;20432;-47
2022/01/27 13:18:45;;;;;;;25.92;5.97;;;8.50;86.90;;;;;;5033034;28;21943;-45
2022/01/27 13:21:29;;;;;;;33.03;4.85;;;8.50;86.70;;;;;;5029174;28;20030;-48
2022/01/27 13:24:05;;;;;;;29.70;8.07;;;8.50;86.60;;;;;;5034307;28;20128;-48
2022/01/27 13:26:33;;;;;;;20.70;5.32;;;8.40;86.70;;;;;;5033649;28;20027;-46
2022/01/27 13:28:58;;;;;;;25.52;5.85;;;8.50;86.80;;;;;;5033226;28;20033;-45
2022/01/27 13:31:26;;;;;;;27.88;5.40;;;8.50;86.80;;;;;;5034147;28;20523;-45
2022/01/27 13:33:52;;;;;;;32.25;7.35;;;8.40;86.70;;;;;;5032563;28;20060;-47
2022/01/27 13:36:25;;;;;;;24.90;5.30;;;8.50;86.90;;;;;;5034113;28;20091;-48
2022/01/27 13:41:35;;;;;;;30.35;6.18;;;8.70;86.70;;;;;;5034364;28;20040;-47
2022/01/27 13:44:08;;;;;;;23.90;5.45;;;8.80;86.40;;;;;;5033635;28;20021;-48